Portland, Oregon
Traffic Map
Current Weather Conditions
Portland, Oregon
Clear
Clear
16°
Feels Like: 16°
Wind Chill: 16° Ceiling: Unl
Heat Index: 16° Visibility: 10mi
Dew Point: 10° Wind: 3mph
Humidity: 69% Direction: 270° (W)
Pressure: 29.84in Gusts: 0mph
Raw Report DataKPDX 150853Z 27003KT 10SM CLR 16/10 A2984 RMK AO2 SLP104 T01560100 51007
Traffic Incident Summary
Active as of:
Severity:
Category:
InformationThere was an issue retrieving the traffic information for this location. Please try a different location or try again shortly.
Advertisements
Track Severe Weather on mobile